Time;durP1;ratioP1;P1;durP2;ratioP2;P2;SDS_P1;SDS_P2;PMS_P1;PMS_P2;Temp;Humidity;BMP_temperature;BMP_pressure;BME280_temperature;BME280_humidity;BME280_pressure;Samples;Min_cycle;Max_cycle;Signal;HPM_P1;HPM_P2
2021/12/22 00:00:46;;;;;;;13.70;9.77;;;;;;;;;;5032944;28;20114;-67
2021/12/22 00:03:11;;;;;;;16.20;11.07;;;;;;;;;;5032771;28;20017;-67
2021/12/22 00:05:44;;;;;;;15.73;10.90;;;;;;;;;;5032874;28;20056;-67
2021/12/22 00:08:09;;;;;;;16.10;11.20;;;;;;;;;;5013485;28;20091;-67
2021/12/22 00:10:34;;;;;;;15.97;10.83;;;;;;;;;;5010229;28;20478;-67
2021/12/22 00:13:00;;;;;;;15.03;9.63;;;;;;;;;;5014053;28;20017;-67
2021/12/22 00:15:25;;;;;;;16.27;10.07;;;;;;;;;;5017491;28;20028;-67
2021/12/22 00:17:50;;;;;;;15.00;11.03;;;;;;;;;;5014727;28;20071;-67
2021/12/22 00:20:15;;;;;;;13.77;9.53;;;;;;;;;;5015057;28;20493;-66
2021/12/22 00:22:41;;;;;;;16.60;11.20;;;;;;;;;;5034099;28;20025;-67
2021/12/22 00:25:07;;;;;;;14.47;10.40;;;;;;;;;;5052659;28;20039;-67
2021/12/22 00:27:32;;;;;;;14.67;10.40;;;;;;;;;;5037205;28;20036;-67
2021/12/22 00:29:57;;;;;;;15.93;10.43;;;;;;;;;;5032003;28;20048;-66
2021/12/22 00:32:24;;;;;;;16.27;11.87;;;;;;;;;;5032282;28;20049;-66
2021/12/22 00:34:52;;;;;;;17.03;11.53;;;;;;;;;;5032262;28;20025;-67
2021/12/22 00:37:21;;;;;;;16.27;10.93;;;;;;;;;;5032044;28;20128;-67
2021/12/22 00:39:47;;;;;;;16.63;11.00;;;;;;;;;;5027217;28;20053;-67
2021/12/22 00:42:13;;;;;;;15.93;10.37;;;;;;;;;;5031771;28;20030;-67
2021/12/22 00:44:39;;;;;;;16.37;10.57;;;;;;;;;;5032194;28;20036;-67
2021/12/22 00:47:05;;;;;;;16.03;10.60;;;;;;;;;;5014186;28;20128;-67
2021/12/22 00:49:30;;;;;;;18.30;11.77;;;;;;;;;;5032420;28;20548;-67
2021/12/22 00:51:56;;;;;;;19.37;11.97;;;;;;;;;;5031617;28;20034;-67
2021/12/22 00:54:21;;;;;;;21.40;11.47;;;;;;;;;;5031284;28;20033;-68
2021/12/22 00:56:46;;;;;;;20.93;11.57;;;;;;;;;;5037014;28;20436;-67
2021/12/22 00:59:11;;;;;;;20.57;12.67;;;;;;;;;;5000158;28;20052;-68
2021/12/22 01:01:37;;;;;;;19.27;12.70;;;;;;;;;;5031629;28;20017;-68
2021/12/22 01:04:03;;;;;;;21.70;13.63;;;;;;;;;;5031583;28;20037;-68
2021/12/22 01:06:28;;;;;;;20.57;13.43;;;;;;;;;;5031567;28;20079;-68
2021/12/22 01:08:53;;;;;;;20.10;13.63;;;;;;;;;;5028444;28;21568;-68
2021/12/22 01:11:18;;;;;;;20.47;13.63;;;;;;;;;;5029231;28;20026;-67
2021/12/22 01:13:44;;;;;;;25.23;14.63;;;;;;;;;;5031855;28;20029;-68
2021/12/22 01:16:09;;;;;;;22.77;14.70;;;;;;;;;;5031679;28;20029;-68
2021/12/22 01:18:35;;;;;;;22.80;14.80;;;;;;;;;;5035845;28;20386;-67
2021/12/22 01:21:14;;;;;;;20.30;13.63;;;;;;;;;;5014696;28;20112;-68
2021/12/22 01:23:58;;;;;;;24.07;14.63;;;;;;;;;;5030962;28;20013;-67
2021/12/22 01:26:23;;;;;;;22.23;13.93;;;;;;;;;;5031071;28;20018;-67
2021/12/22 01:28:48;;;;;;;21.63;15.13;;;;;;;;;;5029944;28;20014;-68
2021/12/22 01:31:16;;;;;;;21.17;14.80;;;;;;;;;;5017415;28;20034;-68
2021/12/22 01:33:41;;;;;;;23.10;15.37;;;;;;;;;;5031007;28;20029;-68
2021/12/22 01:36:06;;;;;;;23.73;15.97;;;;;;;;;;5030759;28;20022;-67
2021/12/22 01:38:31;;;;;;;23.27;15.27;;;;;;;;;;5028731;28;20046;-67
2021/12/22 01:40:57;;;;;;;22.63;15.40;;;;;;;;;;5013057;28;20025;-68
2021/12/22 01:43:22;;;;;;;23.60;16.20;;;;;;;;;;5029950;28;20036;-68
2021/12/22 01:46:09;;;;;;;25.07;15.43;;;;;;;;;;5013680;28;20497;-68
2021/12/22 01:51:25;;;;;;;25.93;16.63;;;;;;;;;;5031619;28;20087;-68
2021/12/22 01:53:51;;;;;;;25.13;16.17;;;;;;;;;;5030914;28;20029;-67
2021/12/22 01:58:43;;;;;;;28.17;17.50;;;;;;;;;;5031674;28;20022;-67
2021/12/22 02:01:10;;;;;;;25.30;16.70;;;;;;;;;;5030273;28;20080;-67
2021/12/22 02:03:36;;;;;;;28.27;16.77;;;;;;;;;;5030325;28;20475;-67
2021/12/22 02:06:04;;;;;;;30.43;16.50;;;;;;;;;;4997428;28;20116;-68
2021/12/22 02:08:29;;;;;;;31.23;17.93;;;;;;;;;;5011457;28;20416;-68
2021/12/22 02:10:54;;;;;;;25.67;16.77;;;;;;;;;;5029698;28;20470;-67
2021/12/22 02:13:27;;;;;;;27.13;17.17;;;;;;;;;;5013244;28;20462;-67
2021/12/22 02:15:52;;;;;;;29.20;16.90;;;;;;;;;;5013083;28;20025;-68
2021/12/22 02:18:19;;;;;;;27.57;17.50;;;;;;;;;;5029619;28;20524;-68
2021/12/22 02:20:46;;;;;;;27.57;17.03;;;;;;;;;;5051834;28;20063;-68
2021/12/22 02:23:11;;;;;;;28.77;17.70;;;;;;;;;;5048806;28;20025;-68
2021/12/22 02:25:44;;;;;;;25.87;15.93;;;;;;;;;;5031656;28;20036;-68
2021/12/22 02:28:20;;;;;;;26.57;16.17;;;;;;;;;;5031039;28;20026;-69
2021/12/22 02:30:45;;;;;;;27.67;17.00;;;;;;;;;;5014757;28;20014;-68
2021/12/22 02:35:54;;;;;;;29.93;17.83;;;;;;;;;;5033149;28;20045;-67
2021/12/22 02:38:19;;;;;;;26.70;17.87;;;;;;;;;;5013987;28;20025;-67
2021/12/22 02:40:49;;;;;;;24.17;15.67;;;;;;;;;;5031707;28;20725;-67
2021/12/22 02:43:20;;;;;;;28.13;17.83;;;;;;;;;;5034198;28;20393;-67
2021/12/22 02:45:46;;;;;;;28.50;17.47;;;;;;;;;;5014844;28;20113;-68
2021/12/22 02:48:11;;;;;;;26.67;16.70;;;;;;;;;;5024662;28;20490;-67
2021/12/22 02:50:36;;;;;;;27.90;18.07;;;;;;;;;;5034410;28;20053;-68
2021/12/22 02:53:09;;;;;;;28.83;17.17;;;;;;;;;;5034802;28;20021;-68
2021/12/22 02:55:45;;;;;;;27.20;17.13;;;;;;;;;;5044461;28;20132;-68
2021/12/22 02:58:17;;;;;;;27.93;16.97;;;;;;;;;;5031805;28;20029;-67
2021/12/22 03:01:00;;;;;;;30.30;17.17;;;;;;;;;;5034622;28;20108;-68
2021/12/22 03:05:54;;;;;;;33.97;20.80;;;;;;;;;;5015838;28;20084;-67
2021/12/22 03:08:19;;;;;;;30.83;18.53;;;;;;;;;;5027766;28;20033;-67
2021/12/22 03:10:45;;;;;;;32.50;18.87;;;;;;;;;;4995543;28;20022;-68
2021/12/22 03:13:10;;;;;;;32.63;19.20;;;;;;;;;;5015488;28;20025;-67
2021/12/22 03:15:35;;;;;;;26.73;17.23;;;;;;;;;;5033411;28;20038;-67
2021/12/22 03:18:02;;;;;;;31.07;18.80;;;;;;;;;;5015857;28;20029;-67
2021/12/22 03:20:27;;;;;;;28.73;17.30;;;;;;;;;;5033623;28;20025;-67
2021/12/22 03:22:52;;;;;;;29.93;18.63;;;;;;;;;;4999756;28;20083;-67
2021/12/22 03:25:20;;;;;;;36.83;20.17;;;;;;;;;;5028788;28;20469;-67
2021/12/22 03:27:47;;;;;;;31.40;19.17;;;;;;;;;;5033171;28;20108;-68
2021/12/22 03:30:13;;;;;;;32.43;20.20;;;;;;;;;;5033524;28;20021;-67
2021/12/22 03:32:38;;;;;;;30.03;18.87;;;;;;;;;;5042113;28;20471;-67
2021/12/22 03:35:03;;;;;;;36.20;19.97;;;;;;;;;;5022554;28;20124;-67
2021/12/22 03:37:29;;;;;;;34.40;19.73;;;;;;;;;;5015299;28;20036;-67
2021/12/22 03:39:54;;;;;;;36.20;20.10;;;;;;;;;;5029583;28;20045;-67
2021/12/22 03:42:19;;;;;;;35.70;19.17;;;;;;;;;;5046553;28;20029;-67
2021/12/22 03:44:45;;;;;;;32.63;19.50;;;;;;;;;;5019586;28;20083;-67
2021/12/22 03:47:10;;;;;;;33.33;19.77;;;;;;;;;;5014386;28;20385;-69
2021/12/22 03:49:35;;;;;;;27.20;17.17;;;;;;;;;;5052515;28;20028;-67
2021/12/22 03:52:01;;;;;;;30.40;17.30;;;;;;;;;;5033272;28;20470;-68
2021/12/22 03:54:26;;;;;;;32.33;18.80;;;;;;;;;;5014698;28;20056;-67
2021/12/22 03:56:51;;;;;;;30.33;17.43;;;;;;;;;;5027414;28;20052;-67
2021/12/22 03:59:17;;;;;;;31.13;18.73;;;;;;;;;;5015328;28;20098;-67
2021/12/22 04:01:42;;;;;;;32.00;18.47;;;;;;;;;;5033217;28;20113;-67
2021/12/22 04:04:13;;;;;;;32.13;19.37;;;;;;;;;;5014625;28;20104;-67
2021/12/22 04:06:39;;;;;;;32.37;18.17;;;;;;;;;;5015763;28;20033;-67
2021/12/22 04:09:05;;;;;;;30.60;18.73;;;;;;;;;;5029417;28;20025;-67
2021/12/22 04:11:30;;;;;;;30.33;18.27;;;;;;;;;;5034985;28;20022;-67
2021/12/22 04:13:55;;;;;;;31.27;18.03;;;;;;;;;;5020617;28;20017;-67
2021/12/22 04:16:21;;;;;;;31.30;17.93;;;;;;;;;;5014717;28;20035;-67
2021/12/22 04:18:46;;;;;;;29.53;18.23;;;;;;;;;;5014788;28;20029;-67
2021/12/22 04:21:11;;;;;;;25.97;16.17;;;;;;;;;;5043365;28;20482;-67
2021/12/22 04:23:36;;;;;;;34.00;19.10;;;;;;;;;;5032220;28;20025;-68
2021/12/22 04:26:02;;;;;;;28.00;17.67;;;;;;;;;;5032177;28;20021;-67
2021/12/22 04:28:27;;;;;;;30.43;18.43;;;;;;;;;;5030833;28;20032;-67
2021/12/22 04:30:52;;;;;;;30.23;18.13;;;;;;;;;;5032544;28;20075;-68
2021/12/22 04:33:19;;;;;;;32.80;18.63;;;;;;;;;;5032130;28;20036;-68
2021/12/22 04:35:45;;;;;;;30.97;16.90;;;;;;;;;;5031954;28;20033;-68
2021/12/22 04:38:10;;;;;;;29.53;16.83;;;;;;;;;;5031404;28;20029;-68
2021/12/22 04:40:35;;;;;;;30.83;18.73;;;;;;;;;;5029551;28;20078;-68
2021/12/22 04:43:01;;;;;;;27.53;17.37;;;;;;;;;;5014188;28;20033;-68
2021/12/22 04:45:26;;;;;;;31.87;18.47;;;;;;;;;;5013142;28;20033;-68
2021/12/22 04:47:51;;;;;;;35.93;18.53;;;;;;;;;;5019926;28;20021;-68
2021/12/22 04:50:18;;;;;;;31.13;18.10;;;;;;;;;;5033033;28;20033;-68
2021/12/22 04:55:18;;;;;;;33.60;18.37;;;;;;;;;;5037536;28;20429;-68
2021/12/22 04:57:44;;;;;;;31.67;17.97;;;;;;;;;;5031242;28;20032;-68
2021/12/22 05:00:10;;;;;;;31.73;18.40;;;;;;;;;;5032124;28;20138;-68
2021/12/22 05:02:36;;;;;;;30.20;18.07;;;;;;;;;;5030746;28;20029;-68
2021/12/22 05:05:01;;;;;;;29.37;17.70;;;;;;;;;;5013609;28;20029;-68
2021/12/22 05:07:27;;;;;;;31.47;18.53;;;;;;;;;;5031673;28;20428;-68
2021/12/22 05:09:52;;;;;;;30.97;17.47;;;;;;;;;;5009655;28;20024;-68
2021/12/22 05:12:17;;;;;;;31.53;17.80;;;;;;;;;;5011502;28;20113;-67
2021/12/22 05:14:47;;;;;;;29.07;17.37;;;;;;;;;;5031398;28;20018;-67
2021/12/22 05:17:19;;;;;;;30.53;17.00;;;;;;;;;;5029636;28;20104;-67
2021/12/22 05:19:44;;;;;;;30.23;16.40;;;;;;;;;;5031104;28;20022;-67
2021/12/22 05:22:09;;;;;;;26.43;16.23;;;;;;;;;;5040556;28;20022;-67
2021/12/22 05:24:35;;;;;;;27.57;16.80;;;;;;;;;;5019300;28;20104;-67
2021/12/22 05:27:00;;;;;;;28.77;17.77;;;;;;;;;;4996562;28;20025;-67
2021/12/22 05:29:25;;;;;;;27.67;16.40;;;;;;;;;;5014180;28;20385;-68
2021/12/22 05:31:54;;;;;;;28.73;17.03;;;;;;;;;;5013764;28;20509;-67
2021/12/22 05:34:19;;;;;;;25.97;15.80;;;;;;;;;;5030881;28;20482;-67
2021/12/22 05:36:44;;;;;;;28.97;17.10;;;;;;;;;;5028334;28;20033;-67
2021/12/22 05:39:09;;;;;;;25.63;15.53;;;;;;;;;;5016075;28;20041;-67
2021/12/22 05:41:35;;;;;;;28.23;16.00;;;;;;;;;;5010199;28;20030;-68
2021/12/22 05:44:00;;;;;;;27.93;16.30;;;;;;;;;;5019749;28;20482;-68
2021/12/22 05:46:25;;;;;;;28.67;17.33;;;;;;;;;;5031076;28;20021;-68
2021/12/22 05:48:50;;;;;;;30.43;17.30;;;;;;;;;;5030949;28;20028;-68
2021/12/22 05:51:15;;;;;;;29.60;16.53;;;;;;;;;;5030944;28;20335;-68
2021/12/22 05:53:41;;;;;;;26.93;16.03;;;;;;;;;;5036383;28;20031;-68
2021/12/22 05:56:06;;;;;;;26.07;16.13;;;;;;;;;;4996752;28;20252;-68
2021/12/22 05:58:32;;;;;;;27.20;16.10;;;;;;;;;;5030985;28;20072;-68
2021/12/22 06:00:57;;;;;;;27.23;16.67;;;;;;;;;;5013704;28;20034;-68
2021/12/22 06:03:22;;;;;;;30.00;16.30;;;;;;;;;;5013240;28;20029;-68
2021/12/22 06:05:47;;;;;;;32.07;17.00;;;;;;;;;;5031144;28;20458;-68
2021/12/22 06:08:12;;;;;;;27.47;17.40;;;;;;;;;;5030396;28;20478;-68
2021/12/22 06:10:38;;;;;;;28.17;16.67;;;;;;;;;;5032543;28;20021;-68
2021/12/22 06:13:07;;;;;;;25.07;15.50;;;;;;;;;;5036571;28;20331;-68
2021/12/22 06:15:33;;;;;;;28.23;16.57;;;;;;;;;;5035055;28;20029;-68
2021/12/22 06:18:00;;;;;;;28.00;16.90;;;;;;;;;;5017190;28;20493;-68
2021/12/22 06:20:25;;;;;;;28.17;15.90;;;;;;;;;;5048027;28;20083;-68
2021/12/22 06:22:51;;;;;;;28.73;17.13;;;;;;;;;;5021966;28;20398;-68
2021/12/22 06:25:16;;;;;;;26.40;16.07;;;;;;;;;;5033260;28;20197;-68
2021/12/22 06:27:41;;;;;;;25.40;16.30;;;;;;;;;;5038604;28;20029;-68
2021/12/22 06:30:07;;;;;;;28.17;15.90;;;;;;;;;;5030763;28;20051;-68
2021/12/22 06:32:32;;;;;;;27.77;15.90;;;;;;;;;;5030012;28;20013;-68
2021/12/22 06:34:57;;;;;;;29.67;17.43;;;;;;;;;;5016323;28;20056;-68
2021/12/22 06:37:22;;;;;;;27.60;16.33;;;;;;;;;;5033928;28;20047;-68
2021/12/22 06:39:48;;;;;;;26.47;16.83;;;;;;;;;;5013199;28;20045;-68
2021/12/22 06:42:13;;;;;;;25.90;15.80;;;;;;;;;;5017344;28;20444;-68
2021/12/22 06:44:39;;;;;;;28.63;16.13;;;;;;;;;;5018854;28;20048;-68
2021/12/22 06:47:06;;;;;;;28.40;17.30;;;;;;;;;;5036474;28;20124;-68
2021/12/22 06:49:31;;;;;;;33.63;18.33;;;;;;;;;;5016805;28;20022;-68
2021/12/22 06:51:56;;;;;;;30.03;18.27;;;;;;;;;;5034226;28;20083;-66
2021/12/22 06:54:21;;;;;;;28.80;16.40;;;;;;;;;;5030451;28;20029;-66
2021/12/22 06:56:47;;;;;;;25.60;15.90;;;;;;;;;;5026638;28;20409;-66
2021/12/22 06:59:14;;;;;;;29.73;16.43;;;;;;;;;;5022299;28;20026;-66
2021/12/22 07:01:39;;;;;;;28.80;17.17;;;;;;;;;;5029755;28;20417;-66
2021/12/22 07:04:04;;;;;;;31.60;18.47;;;;;;;;;;5009872;28;20023;-66
2021/12/22 07:06:30;;;;;;;30.43;17.03;;;;;;;;;;5015975;28;20526;-67
2021/12/22 07:08:56;;;;;;;25.87;16.57;;;;;;;;;;5029549;28;20478;-67
2021/12/22 07:11:21;;;;;;;29.80;15.93;;;;;;;;;;5032924;28;20112;-66
2021/12/22 07:13:46;;;;;;;24.40;15.70;;;;;;;;;;5033401;28;20112;-67
2021/12/22 07:16:13;;;;;;;28.47;16.17;;;;;;;;;;5019618;28;20086;-66
2021/12/22 07:18:38;;;;;;;29.80;17.10;;;;;;;;;;5032829;28;20037;-66
2021/12/22 07:21:03;;;;;;;31.63;16.80;;;;;;;;;;5051261;28;20021;-66
2021/12/22 07:23:28;;;;;;;28.90;16.33;;;;;;;;;;5053181;28;20028;-66
2021/12/22 07:25:54;;;;;;;30.67;18.30;;;;;;;;;;5045828;28;20025;-67
2021/12/22 07:28:19;;;;;;;31.77;18.13;;;;;;;;;;5013937;28;20021;-67
2021/12/22 07:30:44;;;;;;;30.23;17.83;;;;;;;;;;5014620;28;20021;-67
2021/12/22 07:33:09;;;;;;;28.40;16.73;;;;;;;;;;5027485;28;20021;-66
2021/12/22 07:35:42;;;;;;;35.07;18.07;;;;;;;;;;5035160;28;20017;-66
2021/12/22 07:38:07;;;;;;;30.77;17.27;;;;;;;;;;5047380;28;20510;-67
2021/12/22 07:40:33;;;;;;;28.73;16.90;;;;;;;;;;5027979;28;20033;-66
2021/12/22 07:42:58;;;;;;;27.87;16.83;;;;;;;;;;5032636;28;20079;-67
2021/12/22 07:45:23;;;;;;;27.33;16.30;;;;;;;;;;4998380;28;20044;-67
2021/12/22 07:47:49;;;;;;;29.80;16.93;;;;;;;;;;5033248;28;20142;-67
2021/12/22 07:50:14;;;;;;;26.30;16.47;;;;;;;;;;5031546;28;20061;-67
2021/12/22 07:52:39;;;;;;;26.63;16.83;;;;;;;;;;5041744;28;20024;-67
2021/12/22 07:55:04;;;;;;;28.20;14.93;;;;;;;;;;5018106;28;20022;-67
2021/12/22 07:57:30;;;;;;;25.23;14.40;;;;;;;;;;5045848;28;20385;-67
2021/12/22 07:59:55;;;;;;;28.20;15.27;;;;;;;;;;5037085;28;20084;-67
2021/12/22 08:02:20;;;;;;;23.33;14.40;;;;;;;;;;5032373;28;20057;-67
2021/12/22 08:04:45;;;;;;;21.57;13.67;;;;;;;;;;5014182;28;20075;-67
2021/12/22 08:07:10;;;;;;;25.50;14.97;;;;;;;;;;5031282;28;20033;-67
2021/12/22 08:09:36;;;;;;;24.43;15.70;;;;;;;;;;5028001;28;20089;-67
2021/12/22 08:12:04;;;;;;;25.23;14.77;;;;;;;;;;5014901;28;20094;-68
2021/12/22 08:14:40;;;;;;;21.90;14.40;;;;;;;;;;5030993;28;20076;-70
2021/12/22 08:17:07;;;;;;;26.50;14.87;;;;;;;;;;4995311;28;20018;-69
2021/12/22 08:19:32;;;;;;;27.57;16.13;;;;;;;;;;5031909;28;20029;-69
2021/12/22 08:21:58;;;;;;;28.03;16.67;;;;;;;;;;5026540;28;20029;-69
2021/12/22 08:24:23;;;;;;;26.73;15.83;;;;;;;;;;5014435;28;20028;-69
2021/12/22 08:26:50;;;;;;;22.20;14.07;;;;;;;;;;5029135;28;20021;-68
2021/12/22 08:29:15;;;;;;;23.80;15.00;;;;;;;;;;5032515;28;20022;-69
2021/12/22 08:31:40;;;;;;;21.07;13.10;;;;;;;;;;5014178;28;20120;-68
2021/12/22 08:34:06;;;;;;;21.73;14.17;;;;;;;;;;5014250;28;20032;-69
2021/12/22 08:39:16;;;;;;;22.07;12.40;;;;;;;;;;5027244;28;20053;-69
2021/12/22 08:41:43;;;;;;;24.80;13.60;;;;;;;;;;5031944;28;20021;-69
2021/12/22 08:44:10;;;;;;;19.80;12.03;;;;;;;;;;5031870;28;20029;-69
2021/12/22 08:46:37;;;;;;;15.07;10.33;;;;;;;;;;5014191;28;20013;-69
2021/12/22 08:49:03;;;;;;;14.60;9.60;;;;;;;;;;5031728;28;20075;-69
2021/12/22 08:51:28;;;;;;;10.83;8.47;;;;;;;;;;5031939;28;20084;-69
2021/12/22 08:53:54;;;;;;;13.93;9.37;;;;;;;;;;5013057;28;20481;-68
2021/12/22 08:56:19;;;;;;;12.67;9.23;;;;;;;;;;5012145;28;20915;-68
2021/12/22 08:58:44;;;;;;;15.63;9.30;;;;;;;;;;5031524;28;20025;-69
2021/12/22 09:01:10;;;;;;;12.37;8.60;;;;;;;;;;5013898;28;20025;-67
2021/12/22 09:03:35;;;;;;;15.10;8.77;;;;;;;;;;5031771;28;20024;-68
2021/12/22 09:06:01;;;;;;;15.77;8.53;;;;;;;;;;5030810;28;20377;-67
2021/12/22 09:08:26;;;;;;;11.57;8.17;;;;;;;;;;5026981;28;20413;-67
2021/12/22 09:10:51;;;;;;;14.53;9.13;;;;;;;;;;5040959;28;20021;-68
2021/12/22 09:13:19;;;;;;;13.67;8.47;;;;;;;;;;5008366;28;20048;-68
2021/12/22 09:15:44;;;;;;;10.27;7.47;;;;;;;;;;5033974;28;20452;-68
2021/12/22 09:18:10;;;;;;;11.03;7.20;;;;;;;;;;5028103;28;20482;-68
2021/12/22 09:20:35;;;;;;;14.77;7.47;;;;;;;;;;5013562;28;20165;-68
2021/12/22 09:23:00;;;;;;;12.50;6.57;;;;;;;;;;5030962;28;20444;-68
2021/12/22 09:25:25;;;;;;;8.87;6.07;;;;;;;;;;5011942;28;20036;-69
2021/12/22 09:27:50;;;;;;;8.90;5.97;;;;;;;;;;5019401;28;20021;-69
2021/12/22 09:30:16;;;;;;;8.23;6.23;;;;;;;;;;5012633;28;20041;-69
2021/12/22 09:32:41;;;;;;;10.53;6.17;;;;;;;;;;5013441;28;20029;-69
2021/12/22 09:35:07;;;;;;;8.20;5.73;;;;;;;;;;5012746;28;20083;-70
2021/12/22 09:37:32;;;;;;;6.77;5.17;;;;;;;;;;5030923;28;20056;-69
2021/12/22 09:39:57;;;;;;;8.67;5.77;;;;;;;;;;5030905;28;20464;-65
2021/12/22 09:42:23;;;;;;;9.30;5.57;;;;;;;;;;5030231;28;20079;-67
2021/12/22 09:44:50;;;;;;;8.50;5.20;;;;;;;;;;5033638;28;20108;-73
2021/12/22 09:47:24;;;;;;;7.47;5.10;;;;;;;;;;5019978;28;20018;-70
2021/12/22 09:50:06;;;;;;;5.50;3.80;;;;;;;;;;5029234;28;20120;-66
2021/12/22 09:52:32;;;;;;;7.53;4.97;;;;;;;;;;5019641;28;20057;-70
2021/12/22 09:54:59;;;;;;;7.10;4.90;;;;;;;;;;5016776;28;20469;-67
2021/12/22 09:57:25;;;;;;;8.27;4.97;;;;;;;;;;5048051;28;20538;-68
2021/12/22 09:59:51;;;;;;;7.97;4.57;;;;;;;;;;5017038;28;20029;-67
2021/12/22 10:02:18;;;;;;;6.53;4.60;;;;;;;;;;5015499;28;20501;-66
2021/12/22 10:04:43;;;;;;;6.23;4.30;;;;;;;;;;5034114;28;20026;-66
2021/12/22 10:07:15;;;;;;;7.57;4.77;;;;;;;;;;5034769;28;20032;-63
2021/12/22 10:09:42;;;;;;;6.10;4.27;;;;;;;;;;5037269;28;20020;-63
2021/12/22 10:12:12;;;;;;;4.90;3.83;;;;;;;;;;5041437;28;20398;-63
2021/12/22 10:14:46;;;;;;;6.90;3.83;;;;;;;;;;5040127;28;20051;-63
2021/12/22 10:17:24;;;;;;;5.97;3.80;;;;;;;;;;5016666;28;20394;-63
2021/12/22 10:19:53;;;;;;;5.60;4.10;;;;;;;;;;5019254;28;20416;-64
2021/12/22 10:22:18;;;;;;;5.40;3.50;;;;;;;;;;5039896;28;20041;-62
2021/12/22 10:24:46;;;;;;;6.38;3.42;;;;;;;;;;5020827;28;20021;-62
2021/12/22 10:27:17;;;;;;;5.47;3.90;;;;;;;;;;5034335;28;20030;-61
2021/12/22 10:29:42;;;;;;;4.68;3.20;;;;;;;;;;5033637;28;20041;-63
2021/12/22 10:32:12;;;;;;;4.30;3.65;;;;;;;;;;5034084;28;20029;-62
2021/12/22 10:34:54;;;;;;;4.68;3.50;;;;;;;;;;5033819;28;20029;-62
2021/12/22 10:37:32;;;;;;;3.33;3.00;;;;;;;;;;5015189;28;20022;-63
2021/12/22 10:39:57;;;;;;;4.22;3.83;;;;;;;;;;5028825;28;20592;-63
2021/12/22 10:42:38;;;;;;;5.78;3.63;;;;;;;;;;5034597;28;20112;-63
2021/12/22 10:45:10;;;;;;;3.42;3.10;;;;;;;;;;5033047;28;20030;-63
2021/12/22 10:49:14;;;;;;;4.45;3.50;;;;;;;;;;5035269;28;20025;-62
2021/12/22 10:50:30;;;;;;;5.47;3.20;;;;;;;;;;5036804;28;20029;-64
2021/12/22 10:52:57;;;;;;;4.32;3.05;;;;;;;;;;5038107;28;20021;-65
2021/12/22 10:55:22;;;;;;;4.30;3.20;;;;;;;;;;5025459;28;20136;-63
2021/12/22 10:57:47;;;;;;;4.13;2.47;;;;;;;;;;5016649;28;20456;-62
2021/12/22 11:00:14;;;;;;;3.15;2.50;;;;;;;;;;5033667;28;20032;-62
2021/12/22 11:02:44;;;;;;;4.22;2.80;;;;;;;;;;5042937;28;20020;-63
2021/12/22 11:05:27;;;;;;;3.95;2.67;;;;;;;;;;5033191;28;20517;-63
2021/12/22 11:07:52;;;;;;;3.13;2.30;;;;;;;;;;5033194;28;20033;-64
2021/12/22 11:10:28;;;;;;;3.42;2.92;;;;;;;;;;5030619;28;20377;-64
2021/12/22 11:13:01;;;;;;;4.40;2.88;;;;;;;;;;5031139;28;20036;-64
2021/12/22 11:15:26;;;;;;;3.03;2.70;;;;;;;;;;5033591;28;20029;-64
2021/12/22 11:17:51;;;;;;;4.20;2.78;;;;;;;;;;5026761;28;20026;-63
2021/12/22 11:20:17;;;;;;;2.70;2.50;;;;;;;;;;5026094;28;20037;-63
2021/12/22 11:22:51;;;;;;;3.75;3.05;;;;;;;;;;5015658;28;20467;-64
2021/12/22 11:25:17;;;;;;;3.03;2.45;;;;;;;;;;5033045;28;20037;-64
2021/12/22 11:27:42;;;;;;;4.10;2.42;;;;;;;;;;5024405;28;20045;-64
2021/12/22 11:30:08;;;;;;;2.80;2.20;;;;;;;;;;5033293;28;20048;-64
2021/12/22 11:32:33;;;;;;;3.25;2.55;;;;;;;;;;4998993;28;20025;-64
2021/12/22 11:35:00;;;;;;;2.85;2.33;;;;;;;;;;5032323;28;20080;-64
2021/12/22 11:37:26;;;;;;;3.22;2.45;;;;;;;;;;5033381;28;20596;-64
2021/12/22 11:39:52;;;;;;;5.78;2.83;;;;;;;;;;5029528;28;20124;-64
2021/12/22 11:42:20;;;;;;;3.25;2.63;;;;;;;;;;5044041;28;20512;-64
2021/12/22 11:44:47;;;;;;;4.82;2.83;;;;;;;;;;5034167;28;20033;-64
2021/12/22 11:47:13;;;;;;;4.82;2.60;;;;;;;;;;5033614;28;20029;-64
2021/12/22 11:49:51;;;;;;;2.55;2.22;;;;;;;;;;5034530;28;20049;-63
2021/12/22 11:52:27;;;;;;;2.50;2.30;;;;;;;;;;5033108;28;20490;-64
2021/12/22 11:55:11;;;;;;;2.90;2.20;;;;;;;;;;5031900;28;20013;-64
2021/12/22 11:57:36;;;;;;;2.90;2.40;;;;;;;;;;5037916;28;20029;-64
2021/12/22 12:00:20;;;;;;;3.13;2.45;;;;;;;;;;5031769;28;20479;-64
2021/12/22 12:02:46;;;;;;;3.10;2.40;;;;;;;;;;5032916;28;20025;-64
2021/12/22 12:05:21;;;;;;;3.35;1.90;;;;;;;;;;5031748;28;20081;-64
2021/12/22 12:07:50;;;;;;;2.30;1.75;;;;;;;;;;5031979;28;20569;-64
2021/12/22 12:10:34;;;;;;;2.35;1.95;;;;;;;;;;5027251;28;20021;-64
2021/12/22 12:13:05;;;;;;;2.60;2.40;;;;;;;;;;5030397;28;20029;-64
2021/12/22 12:15:56;;;;;;;2.58;2.15;;;;;;;;;;5012304;28;20029;-64
2021/12/22 12:21:54;;;;;;;2.03;1.83;;;;;;;;;;5032477;28;20024;-64
2021/12/22 12:24:38;;;;;;;4.67;2.97;;;;;;;;;;5011233;28;20501;-64
2021/12/22 12:27:22;;;;;;;3.65;1.88;;;;;;;;;;5031470;28;20025;-64
2021/12/22 12:29:57;;;;;;;3.42;2.08;;;;;;;;;;5038921;28;20021;-63
2021/12/22 12:32:22;;;;;;;;;;;;;;;;;;5033671;28;20025;-64
2021/12/22 12:35:07;;;;;;;2.30;1.73;;;;;;;;;;5029632;28;19915;-64
2021/12/22 12:37:51;;;;;;;3.15;2.47;;;;;;;;;;5030669;28;20108;-64
2021/12/22 12:40:16;;;;;;;3.05;2.13;;;;;;;;;;5012744;28;20058;-64
2021/12/22 12:42:58;;;;;;;3.50;2.25;;;;;;;;;;5017555;28;20028;-64
2021/12/22 12:45:42;;;;;;;3.50;1.80;;;;;;;;;;5011180;28;20033;-64
2021/12/22 12:48:26;;;;;;;2.47;1.60;;;;;;;;;;5012759;28;20053;-64
2021/12/22 12:51:10;;;;;;;3.83;2.00;;;;;;;;;;4983760;28;20013;-64
2021/12/22 12:53:43;;;;;;;2.90;2.22;;;;;;;;;;5025594;28;20021;-64
2021/12/22 12:56:09;;;;;;;3.47;2.03;;;;;;;;;;5026559;28;20021;-64
2021/12/22 12:58:34;;;;;;;4.38;2.50;;;;;;;;;;5031131;28;20030;-62
2021/12/22 13:01:00;;;;;;;3.40;2.50;;;;;;;;;;5031323;28;20095;-62
2021/12/22 13:03:25;;;;;;;3.85;2.40;;;;;;;;;;5030388;28;20331;-62
2021/12/22 13:05:50;;;;;;;4.93;2.35;;;;;;;;;;5013852;28;20026;-63
2021/12/22 13:08:15;;;;;;;2.40;2.05;;;;;;;;;;5026092;28;20547;-63
2021/12/22 13:10:44;;;;;;;4.25;2.17;;;;;;;;;;5024100;28;20477;-64
2021/12/22 13:13:18;;;;;;;3.35;2.25;;;;;;;;;;5024555;28;20604;-62
2021/12/22 13:15:46;;;;;;;2.28;2.03;;;;;;;;;;5031614;28;20026;-62
2021/12/22 13:18:12;;;;;;;4.65;2.45;;;;;;;;;;5027180;28;20121;-63
2021/12/22 13:20:40;;;;;;;4.30;2.70;;;;;;;;;;5031169;28;20044;-62
2021/12/22 13:23:08;;;;;;;3.22;2.40;;;;;;;;;;5027143;28;20478;-62
2021/12/22 13:25:33;;;;;;;3.58;2.28;;;;;;;;;;4995443;28;20490;-62
2021/12/22 13:28:01;;;;;;;5.80;2.25;;;;;;;;;;5029689;28;20048;-63
2021/12/22 13:30:31;;;;;;;3.10;2.20;;;;;;;;;;5031189;28;20029;-63
2021/12/22 13:33:13;;;;;;;3.07;2.30;;;;;;;;;;5028179;28;20036;-63
2021/12/22 13:35:39;;;;;;;4.13;2.70;;;;;;;;;;5031094;28;20104;-62
2021/12/22 13:38:09;;;;;;;5.50;2.75;;;;;;;;;;5031220;28;20104;-62
2021/12/22 13:40:41;;;;;;;3.03;2.08;;;;;;;;;;5021664;28;20437;-64
2021/12/22 13:43:15;;;;;;;5.17;2.63;;;;;;;;;;5032041;28;20065;-64
2021/12/22 13:45:40;;;;;;;4.00;2.70;;;;;;;;;;5030411;28;20120;-64
2021/12/22 13:48:05;;;;;;;6.07;2.38;;;;;;;;;;5030601;28;20447;-63
2021/12/22 13:50:30;;;;;;;4.13;2.70;;;;;;;;;;5013275;28;20025;-64
2021/12/22 13:52:56;;;;;;;3.13;2.47;;;;;;;;;;5031024;28;20022;-64
2021/12/22 13:55:21;;;;;;;3.73;2.67;;;;;;;;;;5030521;28;20063;-64
2021/12/22 13:57:46;;;;;;;3.90;2.50;;;;;;;;;;5041113;28;20030;-63
2021/12/22 14:00:17;;;;;;;4.50;3.00;;;;;;;;;;5030717;28;20508;-64
2021/12/22 14:02:43;;;;;;;3.60;2.80;;;;;;;;;;5023583;28;20065;-66
2021/12/22 14:05:19;;;;;;;4.17;2.80;;;;;;;;;;5012624;28;20033;-67
2021/12/22 14:07:45;;;;;;;4.57;2.70;;;;;;;;;;5010231;28;20017;-62
2021/12/22 14:10:12;;;;;;;4.33;2.80;;;;;;;;;;5022273;28;20026;-65
2021/12/22 14:12:39;;;;;;;3.30;2.70;;;;;;;;;;5028694;28;20025;-69
2021/12/22 14:15:05;;;;;;;3.77;2.70;;;;;;;;;;5030772;28;20100;-66
2021/12/22 14:17:35;;;;;;;4.20;3.13;;;;;;;;;;5031801;28;20033;-63
2021/12/22 14:20:12;;;;;;;4.63;3.27;;;;;;;;;;5030266;28;20033;-63
2021/12/22 14:22:38;;;;;;;3.93;3.10;;;;;;;;;;5030655;28;20389;-61
2021/12/22 14:25:06;;;;;;;4.67;3.20;;;;;;;;;;5030291;28;20033;-60
2021/12/22 14:27:34;;;;;;;6.93;3.03;;;;;;;;;;5030304;28;20045;-61
2021/12/22 14:29:59;;;;;;;4.23;3.30;;;;;;;;;;5024021;28;20029;-62
2021/12/22 14:32:27;;;;;;;4.40;3.10;;;;;;;;;;5033276;28;20028;-61
2021/12/22 14:34:57;;;;;;;4.20;3.17;;;;;;;;;;5033212;28;20028;-61
2021/12/22 14:37:26;;;;;;;4.73;3.37;;;;;;;;;;5034248;28;20049;-60
2021/12/22 14:39:54;;;;;;;5.23;3.53;;;;;;;;;;5031000;28;20559;-60
2021/12/22 14:42:24;;;;;;;6.87;3.37;;;;;;;;;;5041378;28;20037;-62
2021/12/22 14:44:49;;;;;;;6.00;3.17;;;;;;;;;;5044057;28;20385;-60
2021/12/22 14:47:21;;;;;;;6.50;3.13;;;;;;;;;;5033942;28;20104;-60
2021/12/22 14:49:47;;;;;;;4.60;2.93;;;;;;;;;;5038413;28;20036;-63